createdAt,value
2019-01-30T00:02:39.465Z,71.20
2019-01-30T00:07:40.771Z,71.80
2019-01-30T00:12:42.054Z,71.00
2019-01-30T00:17:43.699Z,69.60
2019-01-30T00:22:44.987Z,69.60
2019-01-30T00:27:46.673Z,70.20
2019-01-30T00:32:47.965Z,71.00
2019-01-30T00:37:49.250Z,70.10
2019-01-30T00:42:50.638Z,69.90
2019-01-30T00:47:52.271Z,70.10
2019-01-30T00:52:53.932Z,70.90
2019-01-30T00:57:55.221Z,70.40
2019-01-30T01:02:56.513Z,71.40
2019-01-30T01:07:57.935Z,72.40
2019-01-30T01:12:59.705Z,72.00
2019-01-30T01:18:00.985Z,73.50
2019-01-30T01:23:02.594Z,72.80
2019-01-30T01:28:03.981Z,72.20
2019-01-30T01:33:05.287Z,72.50
2019-01-30T01:38:06.556Z,73.50
2019-01-30T01:43:07.837Z,73.60
2019-01-30T01:48:09.115Z,71.40
2019-01-30T01:53:10.422Z,72.00
2019-01-30T01:58:11.698Z,73.60
2019-01-30T02:03:12.990Z,73.90
2019-01-30T02:08:14.294Z,73.00
2019-01-30T02:13:15.561Z,70.80
2019-01-30T02:18:16.846Z,70.60
2019-01-30T02:23:18.119Z,70.20
2019-01-30T02:28:19.395Z,69.60
2019-01-30T02:33:20.693Z,69.60
2019-01-30T02:38:21.976Z,68.90
2019-01-30T02:43:23.590Z,68.40
2019-01-30T02:48:24.861Z,67.00
2019-01-30T02:53:26.146Z,67.40
2019-01-30T02:58:27.452Z,67.70
2019-01-30T03:03:28.707Z,67.30
2019-01-30T03:08:30.013Z,68.20
2019-01-30T03:13:31.285Z,68.40
2019-01-30T03:18:32.565Z,69.80
2019-01-30T03:23:33.848Z,69.80
2019-01-30T03:28:35.491Z,70.20
2019-01-30T03:33:36.761Z,71.40
2019-01-30T03:38:38.044Z,71.50
2019-01-30T03:43:39.753Z,72.20
2019-01-30T03:48:41.379Z,73.10
2019-01-30T03:53:42.662Z,71.90
2019-01-30T03:58:43.973Z,73.00
2019-01-30T04:03:45.254Z,74.30
2019-01-30T04:08:46.963Z,75.10
2019-01-30T04:13:48.285Z,74.50
2019-01-30T04:18:49.573Z,75.60
2019-01-30T04:23:50.852Z,75.10
2019-01-30T04:28:52.145Z,71.80
2019-01-30T04:33:53.770Z,63.70
2019-01-30T04:38:55.068Z,61.00
2019-01-30T04:43:56.346Z,60.20
2019-01-30T04:48:57.631Z,59.50
2019-01-30T04:53:59.202Z,59.20
2019-01-30T04:59:00.809Z,59.00
2019-01-30T05:04:02.100Z,58.70
2019-01-30T05:09:06.245Z,58.30
2019-01-30T05:14:07.531Z,58.60
2019-01-30T05:19:08.812Z,59.40
2019-01-30T05:24:10.095Z,59.80
2019-01-30T05:29:11.694Z,60.10
2019-01-30T05:34:13.015Z,60.80
2019-01-30T05:39:14.309Z,63.70
2019-01-30T05:44:15.590Z,66.10
2019-01-30T05:49:16.884Z,64.70
2019-01-30T05:54:18.517Z,65.70
2019-01-30T05:59:19.806Z,64.40
2019-01-30T06:04:21.465Z,64.10
2019-01-30T06:09:22.891Z,63.90
2019-01-30T06:14:24.192Z,64.30
2019-01-30T06:19:25.830Z,62.80
2019-01-30T06:24:27.491Z,64.00
2019-01-30T06:29:29.169Z,61.40
2019-01-30T06:34:30.441Z,59.90
2019-01-30T06:39:31.738Z,60.00
2019-01-30T06:44:33.023Z,59.70
2019-01-30T06:49:34.306Z,60.20
2019-01-30T06:54:35.588Z,60.60
2019-01-30T06:59:36.866Z,60.90
2019-01-30T07:04:38.529Z,60.30
2019-01-30T07:09:39.850Z,61.00
2019-01-30T07:14:41.508Z,61.60
2019-01-30T07:19:42.781Z,60.90
2019-01-30T07:24:44.561Z,61.20
2019-01-30T07:29:45.837Z,61.30
2019-01-30T07:34:47.125Z,62.10
2019-01-30T07:39:48.520Z,62.60
2019-01-30T07:44:51.120Z,63.30
2019-01-30T07:49:52.557Z,64.10
2019-01-30T07:54:54.218Z,64.30
2019-01-30T07:59:55.501Z,64.30
2019-01-30T08:04:56.982Z,65.00
2019-01-30T08:09:58.292Z,65.30
2019-01-30T08:14:59.581Z,65.80
2019-01-30T08:20:01.158Z,66.30
2019-01-30T08:25:05.042Z,66.60
2019-01-30T08:30:22.402Z,67.10
2019-01-30T08:35:17.298Z,67.80
2019-01-30T08:40:18.583Z,68.90
2019-01-30T08:45:25.197Z,69.00
2019-01-30T08:50:26.480Z,68.90
2019-01-30T08:55:27.780Z,68.30
2019-01-30T09:00:29.449Z,68.40
2019-01-30T09:05:30.754Z,68.70
2019-01-30T09:10:32.063Z,68.50
2019-01-30T09:15:33.475Z,68.40
2019-01-30T09:20:34.758Z,69.10
2019-01-30T09:25:36.046Z,69.20
2019-01-30T09:30:37.735Z,69.60
2019-01-30T09:35:39.010Z,69.00
2019-01-30T09:40:40.309Z,69.60
2019-01-30T09:45:41.577Z,67.60
2019-01-30T09:50:42.860Z,69.00
2019-01-30T09:55:44.138Z,68.70
2019-01-30T10:00:45.791Z,70.90
2019-01-30T10:05:47.430Z,72.30
2019-01-30T10:10:49.139Z,72.70
2019-01-30T10:15:50.446Z,71.50
2019-01-30T10:20:51.729Z,71.90
2019-01-30T10:25:53.328Z,71.80
2019-01-30T10:30:54.935Z,71.20
2019-01-30T10:35:56.209Z,71.50
2019-01-30T10:40:57.496Z,70.80
2019-01-30T10:45:59.118Z,71.00
2019-01-30T10:51:00.401Z,71.70
2019-01-30T10:56:01.805Z,72.00
2019-01-30T11:01:04.182Z,71.90
2019-01-30T11:06:05.825Z,72.00
2019-01-30T11:11:08.254Z,73.40
2019-01-30T11:16:09.714Z,75.60
2019-01-30T11:21:10.970Z,75.20
2019-01-30T11:26:12.573Z,74.80
2019-01-30T11:31:14.157Z,73.90
2019-01-30T11:36:15.438Z,75.30
2019-01-30T11:41:16.733Z,74.50
2019-01-30T11:46:17.997Z,74.70
2019-01-30T11:51:19.602Z,74.80
2019-01-30T11:56:20.885Z,75.30
2019-01-30T12:01:22.157Z,75.60
2019-01-30T12:06:23.441Z,75.00
2019-01-30T12:11:24.752Z,75.50
2019-01-30T12:16:26.035Z,75.10
2019-01-30T12:21:27.649Z,74.50
2019-01-30T12:26:28.933Z,73.90
2019-01-30T12:31:30.210Z,74.40
2019-01-30T12:36:31.501Z,74.20
2019-01-30T12:41:35.728Z,73.80
2019-01-30T12:46:36.213Z,72.70
2019-01-30T12:51:37.825Z,73.00
2019-01-30T12:56:39.102Z,73.00
2019-01-30T13:01:40.382Z,72.80
2019-01-30T13:06:41.677Z,72.50
2019-01-30T13:11:43.305Z,72.00
2019-01-30T13:16:44.595Z,71.60
2019-01-30T13:21:46.250Z,70.70
2019-01-30T13:26:47.529Z,70.60
2019-01-30T13:31:48.814Z,69.90
2019-01-30T13:36:50.091Z,68.70
2019-01-30T13:41:52.784Z,68.50
2019-01-30T13:46:54.414Z,67.70
2019-01-30T13:51:55.984Z,67.00
2019-01-30T13:56:57.560Z,67.00
2019-01-30T14:01:58.833Z,65.90
2019-01-30T14:07:00.124Z,65.80
2019-01-30T14:12:01.429Z,65.00
2019-01-30T14:17:03.103Z,66.30
2019-01-30T14:22:04.373Z,65.70
2019-01-30T14:27:05.655Z,64.90
2019-01-30T14:32:07.021Z,65.00
2019-01-30T14:37:08.656Z,64.20
2019-01-30T14:42:09.956Z,64.30
2019-01-30T14:47:11.226Z,63.80
2019-01-30T14:52:12.512Z,62.50
2019-01-30T14:57:13.816Z,61.50
2019-01-30T15:02:15.065Z,61.20
2019-01-30T15:07:16.657Z,61.50
2019-01-30T15:12:20.968Z,61.30
2019-01-30T15:17:22.879Z,60.40
2019-01-30T15:22:24.551Z,60.80
2019-01-30T15:27:25.833Z,61.30
2019-01-30T15:32:27.103Z,61.70
2019-01-30T15:37:28.382Z,62.40
2019-01-30T15:42:30.394Z,62.90
2019-01-30T15:47:32.304Z,63.80
2019-01-30T15:52:34.697Z,62.10
2019-01-30T15:57:35.979Z,60.40
2019-01-30T16:02:37.266Z,62.30
2019-01-30T16:07:38.540Z,59.90
2019-01-30T16:12:41.446Z,60.20
2019-01-30T16:17:42.906Z,60.30
2019-01-30T16:22:44.188Z,60.20
2019-01-30T16:27:45.470Z,60.90
2019-01-30T16:32:47.262Z,61.40
2019-01-30T16:37:48.539Z,61.40
2019-01-30T16:42:49.823Z,62.30
2019-01-30T16:47:51.101Z,62.60
2019-01-30T16:52:52.387Z,62.40
2019-01-30T16:57:53.674Z,62.00
2019-01-30T17:02:55.757Z,62.20
2019-01-30T17:07:57.142Z,62.10
2019-01-30T17:12:58.729Z,61.70
2019-01-30T17:18:00.061Z,62.40
2019-01-30T17:23:01.285Z,62.10
2019-01-30T17:28:03.074Z,62.20
2019-01-30T17:33:04.349Z,62.40
2019-01-30T17:38:06.038Z,62.80
2019-01-30T17:43:07.318Z,62.80
2019-01-30T17:48:08.893Z,62.90
2019-01-30T17:53:10.516Z,62.80
2019-01-30T17:58:11.794Z,62.60
2019-01-30T18:03:13.074Z,61.90
2019-01-30T18:08:14.399Z,61.30
2019-01-30T18:13:15.701Z,60.70
2019-01-30T18:18:16.982Z,61.60
2019-01-30T18:23:18.609Z,60.60
2019-01-30T18:28:20.194Z,60.60
2019-01-30T18:33:21.487Z,60.90
2019-01-30T18:38:22.769Z,61.40
2019-01-30T18:43:24.062Z,61.10
2019-01-30T18:48:25.363Z,61.20
2019-01-30T18:53:26.626Z,61.00
2019-01-30T18:58:27.981Z,61.20
2019-01-30T19:03:29.314Z,60.60
2019-01-30T19:08:31.447Z,60.90
2019-01-30T19:13:33.140Z,60.70
2019-01-30T19:18:34.425Z,60.30
2019-01-30T19:23:36.114Z,59.90
2019-01-30T19:28:37.393Z,60.00
2019-01-30T19:33:38.677Z,60.80
2019-01-30T19:38:39.961Z,61.60
2019-01-30T19:43:41.252Z,61.90
2019-01-30T19:48:42.529Z,62.10
2019-01-30T19:53:43.815Z,62.80
2019-01-30T19:58:45.095Z,62.60
2019-01-30T20:03:46.382Z,62.90
2019-01-30T20:08:47.689Z,62.40
2019-01-30T20:13:50.466Z,62.20
2019-01-30T20:18:51.689Z,62.50
2019-01-30T20:23:52.965Z,62.20
2019-01-30T20:28:54.358Z,62.10
2019-01-30T20:33:55.752Z,61.80
2019-01-30T20:38:57.337Z,61.90
2019-01-30T20:43:59.526Z,61.70
2019-01-30T20:49:01.112Z,63.10
2019-01-30T20:54:22.299Z,64.30
2019-01-30T20:59:23.725Z,65.00
2019-01-30T21:04:25.178Z,66.10
2019-01-30T21:09:26.862Z,65.90
2019-01-30T21:14:28.359Z,66.80
2019-01-30T21:19:29.648Z,67.10
2019-01-30T21:24:30.992Z,66.50
2019-01-30T21:29:32.273Z,66.90
2019-01-30T21:34:34.022Z,67.20
2019-01-30T21:39:35.250Z,67.50
2019-01-30T21:44:36.545Z,68.00
2019-01-30T21:49:37.814Z,67.70
2019-01-30T21:54:39.210Z,68.10
2019-01-30T21:59:41.041Z,69.70
2019-01-30T22:04:42.674Z,68.70
2019-01-30T22:09:43.986Z,68.20
2019-01-30T22:14:45.681Z,68.70
2019-01-30T22:19:47.537Z,68.40
2019-01-30T22:24:49.962Z,68.70
2019-01-30T22:29:51.889Z,67.50
2019-01-30T22:34:53.226Z,68.60
2019-01-30T22:39:54.564Z,68.80
2019-01-30T22:44:56.205Z,69.80
2019-01-30T22:49:57.486Z,69.40
2019-01-30T22:54:59.182Z,65.60
2019-01-30T23:00:00.607Z,67.70
2019-01-30T23:05:08.876Z,66.00
2019-01-30T23:10:26.330Z,65.00
2019-01-30T23:15:40.569Z,66.60
2019-01-30T23:20:46.120Z,67.60
2019-01-30T23:26:06.585Z,65.30
2019-01-30T23:31:32.395Z,64.30
2019-01-30T23:36:53.168Z,63.00
2019-01-30T23:42:51.526Z,66.10
2019-01-30T23:48:20.558Z,65.70
2019-01-30T23:53:41.176Z,64.00
2019-01-30T23:58:52.209Z,63.40
